sensor_id;sensor_type;location;lat;lon;timestamp;temperature;humidity
52459;DHT22;38372;52.902;6.024;2023-06-04T00:02:29;10.00;99.90
52459;DHT22;38372;52.902;6.024;2023-06-04T00:04:55;10.00;99.90
52459;DHT22;38372;52.902;6.024;2023-06-04T00:07:21;9.90;99.90
52459;DHT22;38372;52.902;6.024;2023-06-04T00:09:47;9.90;99.90
52459;DHT22;38372;52.902;6.024;2023-06-04T00:12:14;9.90;99.90
52459;DHT22;38372;52.902;6.024;2023-06-04T00:14:39;9.80;99.90
52459;DHT22;38372;52.902;6.024;2023-06-04T00:17:07;9.80;99.90
52459;DHT22;38372;52.902;6.024;2023-06-04T00:19:33;9.80;99.90
52459;DHT22;38372;52.902;6.024;2023-06-04T00:21:59;9.70;99.90
52459;DHT22;38372;52.902;6.024;2023-06-04T00:24:25;9.70;99.90
52459;DHT22;38372;52.902;6.024;2023-06-04T00:26:51;9.70;99.90
52459;DHT22;38372;52.902;6.024;2023-06-04T00:29:17;9.60;99.90
52459;DHT22;38372;52.902;6.024;2023-06-04T00:31:42;9.60;99.90
52459;DHT22;38372;52.902;6.024;2023-06-04T00:34:10;9.60;99.90
52459;DHT22;38372;52.902;6.024;2023-06-04T00:36:36;9.50;99.90
52459;DHT22;38372;52.902;6.024;2023-06-04T00:39:02;9.50;99.90
52459;DHT22;38372;52.902;6.024;2023-06-04T00:41:28;9.50;99.90
52459;DHT22;38372;52.902;6.024;2023-06-04T00:43:54;9.50;99.90
52459;DHT22;38372;52.902;6.024;2023-06-04T00:46:24;9.50;99.90
52459;DHT22;38372;52.902;6.024;2023-06-04T00:48:51;9.40;99.90
52459;DHT22;38372;52.902;6.024;2023-06-04T00:51:18;9.40;99.90
52459;DHT22;38372;52.902;6.024;2023-06-04T00:53:44;9.40;99.90
52459;DHT22;38372;52.902;6.024;2023-06-04T00:56:11;9.40;99.90
52459;DHT22;38372;52.902;6.024;2023-06-04T00:58:38;9.40;99.90
52459;DHT22;38372;52.902;6.024;2023-06-04T01:01:12;9.30;99.90
52459;DHT22;38372;52.902;6.024;2023-06-04T01:03:42;9.30;99.90
52459;DHT22;38372;52.902;6.024;2023-06-04T01:06:17;9.30;99.90
52459;DHT22;38372;52.902;6.024;2023-06-04T01:08:51;9.30;99.90
52459;DHT22;38372;52.902;6.024;2023-06-04T01:11:33;9.30;99.90
52459;DHT22;38372;52.902;6.024;2023-06-04T01:13:59;9.30;99.90
52459;DHT22;38372;52.902;6.024;2023-06-04T01:16:27;9.30;99.90
52459;DHT22;38372;52.902;6.024;2023-06-04T01:18:57;9.30;99.90
52459;DHT22;38372;52.902;6.024;2023-06-04T01:21:26;9.30;99.90
52459;DHT22;38372;52.902;6.024;2023-06-04T01:23:57;9.20;99.90
52459;DHT22;38372;52.902;6.024;2023-06-04T01:26:30;9.20;99.90
52459;DHT22;38372;52.902;6.024;2023-06-04T01:28:58;9.20;99.90
52459;DHT22;38372;52.902;6.024;2023-06-04T01:31:25;9.20;99.90
52459;DHT22;38372;52.902;6.024;2023-06-04T01:33:57;9.20;99.90
52459;DHT22;38372;52.902;6.024;2023-06-04T01:36:24;9.10;99.90
52459;DHT22;38372;52.902;6.024;2023-06-04T01:38:51;9.10;99.90
52459;DHT22;38372;52.902;6.024;2023-06-04T01:41:17;9.10;99.90
52459;DHT22;38372;52.902;6.024;2023-06-04T01:43:43;9.10;99.90
52459;DHT22;38372;52.902;6.024;2023-06-04T01:46:09;9.10;99.90
52459;DHT22;38372;52.902;6.024;2023-06-04T01:48:35;9.00;99.90
52459;DHT22;38372;52.902;6.024;2023-06-04T01:51:02;9.00;99.90
52459;DHT22;38372;52.902;6.024;2023-06-04T01:53:28;9.00;99.90
52459;DHT22;38372;52.902;6.024;2023-06-04T01:55:54;9.00;99.90
52459;DHT22;38372;52.902;6.024;2023-06-04T01:58:21;8.90;99.90
52459;DHT22;38372;52.902;6.024;2023-06-04T02:00:51;8.90;99.90
52459;DHT22;38372;52.902;6.024;2023-06-04T02:03:18;8.90;99.90
52459;DHT22;38372;52.902;6.024;2023-06-04T02:05:44;8.90;99.90
52459;DHT22;38372;52.902;6.024;2023-06-04T02:08:14;8.90;99.90
52459;DHT22;38372;52.902;6.024;2023-06-04T02:10:46;8.90;99.90
52459;DHT22;38372;52.902;6.024;2023-06-04T02:13:12;8.90;99.90
52459;DHT22;38372;52.902;6.024;2023-06-04T02:15:38;8.90;99.90
52459;DHT22;38372;52.902;6.024;2023-06-04T02:18:18;8.80;99.90
52459;DHT22;38372;52.902;6.024;2023-06-04T02:20:47;8.80;99.90
52459;DHT22;38372;52.902;6.024;2023-06-04T02:23:14;8.80;99.90
52459;DHT22;38372;52.902;6.024;2023-06-04T02:25:41;8.80;99.90
52459;DHT22;38372;52.902;6.024;2023-06-04T02:28:08;8.70;99.90
52459;DHT22;38372;52.902;6.024;2023-06-04T02:30:33;8.70;99.90
52459;DHT22;38372;52.902;6.024;2023-06-04T02:32:59;8.70;99.90
52459;DHT22;38372;52.902;6.024;2023-06-04T02:35:30;8.70;99.90
52459;DHT22;38372;52.902;6.024;2023-06-04T02:37:56;8.60;99.90
52459;DHT22;38372;52.902;6.024;2023-06-04T02:40:24;8.60;99.90
52459;DHT22;38372;52.902;6.024;2023-06-04T02:42:52;8.60;99.90
52459;DHT22;38372;52.902;6.024;2023-06-04T02:45:18;8.60;99.90
52459;DHT22;38372;52.902;6.024;2023-06-04T02:47:44;8.50;99.90
52459;DHT22;38372;52.902;6.024;2023-06-04T02:50:10;8.60;99.90
52459;DHT22;38372;52.902;6.024;2023-06-04T02:52:36;8.60;99.90
52459;DHT22;38372;52.902;6.024;2023-06-04T02:55:07;8.60;99.90
52459;DHT22;38372;52.902;6.024;2023-06-04T02:57:34;8.60;99.90
52459;DHT22;38372;52.902;6.024;2023-06-04T03:00:01;8.50;99.90
52459;DHT22;38372;52.902;6.024;2023-06-04T03:02:27;8.50;99.90
52459;DHT22;38372;52.902;6.024;2023-06-04T03:04:53;8.60;99.90
52459;DHT22;38372;52.902;6.024;2023-06-04T03:07:21;8.50;99.90
52459;DHT22;38372;52.902;6.024;2023-06-04T03:09:49;8.50;99.90
52459;DHT22;38372;52.902;6.024;2023-06-04T03:12:15;8.40;99.90
52459;DHT22;38372;52.902;6.024;2023-06-04T03:14:41;8.40;99.90
52459;DHT22;38372;52.902;6.024;2023-06-04T03:17:06;8.40;99.90
52459;DHT22;38372;52.902;6.024;2023-06-04T03:19:39;8.40;99.90
52459;DHT22;38372;52.902;6.024;2023-06-04T03:22:07;8.40;99.90
52459;DHT22;38372;52.902;6.024;2023-06-04T03:24:35;8.40;99.90
52459;DHT22;38372;52.902;6.024;2023-06-04T03:27:05;8.30;99.90
52459;DHT22;38372;52.902;6.024;2023-06-04T03:29:32;8.40;99.90
52459;DHT22;38372;52.902;6.024;2023-06-04T03:31:58;8.40;99.90
52459;DHT22;38372;52.902;6.024;2023-06-04T03:34:24;8.40;99.90
52459;DHT22;38372;52.902;6.024;2023-06-04T03:36:54;8.40;99.90
52459;DHT22;38372;52.902;6.024;2023-06-04T03:39:20;8.40;99.90
52459;DHT22;38372;52.902;6.024;2023-06-04T03:41:47;8.30;99.90
52459;DHT22;38372;52.902;6.024;2023-06-04T03:44:17;8.30;99.90
52459;DHT22;38372;52.902;6.024;2023-06-04T03:46:43;8.30;99.90
52459;DHT22;38372;52.902;6.024;2023-06-04T03:49:10;8.30;99.90
52459;DHT22;38372;52.902;6.024;2023-06-04T03:51:37;8.30;99.90
52459;DHT22;38372;52.902;6.024;2023-06-04T03:54:03;8.30;99.90
52459;DHT22;38372;52.902;6.024;2023-06-04T03:56:29;8.30;99.90
52459;DHT22;38372;52.902;6.024;2023-06-04T03:58:55;8.30;99.90
52459;DHT22;38372;52.902;6.024;2023-06-04T04:01:21;8.30;99.90
52459;DHT22;38372;52.902;6.024;2023-06-04T04:03:49;8.40;99.90
52459;DHT22;38372;52.902;6.024;2023-06-04T04:06:15;8.30;99.90
52459;DHT22;38372;52.902;6.024;2023-06-04T04:08:41;8.40;99.90
52459;DHT22;38372;52.902;6.024;2023-06-04T04:11:14;8.40;99.90
52459;DHT22;38372;52.902;6.024;2023-06-04T04:13:40;8.40;99.90
52459;DHT22;38372;52.902;6.024;2023-06-04T04:16:06;8.40;99.90
52459;DHT22;38372;52.902;6.024;2023-06-04T04:18:36;8.50;99.90
52459;DHT22;38372;52.902;6.024;2023-06-04T04:21:03;8.50;99.90
52459;DHT22;38372;52.902;6.024;2023-06-04T04:23:29;8.60;99.90
52459;DHT22;38372;52.902;6.024;2023-06-04T04:25:58;8.60;99.90
52459;DHT22;38372;52.902;6.024;2023-06-04T04:28:25;8.70;99.90
52459;DHT22;38372;52.902;6.024;2023-06-04T04:30:54;8.70;99.90
52459;DHT22;38372;52.902;6.024;2023-06-04T04:33:22;8.80;99.90
52459;DHT22;38372;52.902;6.024;2023-06-04T04:35:50;8.90;99.90
52459;DHT22;38372;52.902;6.024;2023-06-04T04:38:19;9.00;99.90
52459;DHT22;38372;52.902;6.024;2023-06-04T04:40:45;9.00;99.90
52459;DHT22;38372;52.902;6.024;2023-06-04T04:43:13;9.10;99.90
52459;DHT22;38372;52.902;6.024;2023-06-04T04:45:39;9.20;99.90
52459;DHT22;38372;52.902;6.024;2023-06-04T04:48:05;9.30;99.90
52459;DHT22;38372;52.902;6.024;2023-06-04T04:50:31;9.40;99.90
52459;DHT22;38372;52.902;6.024;2023-06-04T04:52:58;9.50;99.90
52459;DHT22;38372;52.902;6.024;2023-06-04T04:55:24;9.60;99.90
52459;DHT22;38372;52.902;6.024;2023-06-04T04:57:50;9.70;99.90
52459;DHT22;38372;52.902;6.024;2023-06-04T05:00:16;9.80;99.90
52459;DHT22;38372;52.902;6.024;2023-06-04T05:02:42;9.90;99.90
52459;DHT22;38372;52.902;6.024;2023-06-04T05:05:08;10.10;99.90
52459;DHT22;38372;52.902;6.024;2023-06-04T05:07:36;10.20;99.90
52459;DHT22;38372;52.902;6.024;2023-06-04T05:10:02;10.30;99.90
52459;DHT22;38372;52.902;6.024;2023-06-04T05:12:30;10.50;99.90
52459;DHT22;38372;52.902;6.024;2023-06-04T05:14:57;10.60;99.90
52459;DHT22;38372;52.902;6.024;2023-06-04T05:17:22;10.70;99.90
52459;DHT22;38372;52.902;6.024;2023-06-04T05:19:56;10.80;99.90
52459;DHT22;38372;52.902;6.024;2023-06-04T05:22:37;10.90;99.90
52459;DHT22;38372;52.902;6.024;2023-06-04T05:25:03;11.00;99.90
52459;DHT22;38372;52.902;6.024;2023-06-04T05:27:31;11.10;99.90
52459;DHT22;38372;52.902;6.024;2023-06-04T05:29:57;11.30;99.90
52459;DHT22;38372;52.902;6.024;2023-06-04T05:32:23;11.40;99.90
52459;DHT22;38372;52.902;6.024;2023-06-04T05:34:49;11.50;99.90
52459;DHT22;38372;52.902;6.024;2023-06-04T05:37:15;11.60;99.90
52459;DHT22;38372;52.902;6.024;2023-06-04T05:39:43;11.70;99.90
52459;DHT22;38372;52.902;6.024;2023-06-04T05:42:09;11.80;99.90
52459;DHT22;38372;52.902;6.024;2023-06-04T05:44:36;11.90;99.90
52459;DHT22;38372;52.902;6.024;2023-06-04T05:47:01;12.00;99.90
52459;DHT22;38372;52.902;6.024;2023-06-04T05:49:27;12.20;99.90
52459;DHT22;38372;52.902;6.024;2023-06-04T05:51:53;12.30;99.90
52459;DHT22;38372;52.902;6.024;2023-06-04T05:54:19;12.40;99.90
52459;DHT22;38372;52.902;6.024;2023-06-04T05:56:45;12.50;99.90
52459;DHT22;38372;52.902;6.024;2023-06-04T05:59:10;12.70;99.90
52459;DHT22;38372;52.902;6.024;2023-06-04T06:01:36;12.80;99.90
52459;DHT22;38372;52.902;6.024;2023-06-04T06:04:03;12.90;99.90
52459;DHT22;38372;52.902;6.024;2023-06-04T06:06:29;13.00;99.90
52459;DHT22;38372;52.902;6.024;2023-06-04T06:08:55;13.10;99.90
52459;DHT22;38372;52.902;6.024;2023-06-04T06:11:21;13.30;99.90
52459;DHT22;38372;52.902;6.024;2023-06-04T06:13:47;13.40;99.90
52459;DHT22;38372;52.902;6.024;2023-06-04T06:16:13;13.50;99.90
52459;DHT22;38372;52.902;6.024;2023-06-04T06:18:38;13.70;99.90
52459;DHT22;38372;52.902;6.024;2023-06-04T06:21:05;13.80;99.90
52459;DHT22;38372;52.902;6.024;2023-06-04T06:23:31;14.00;99.90
52459;DHT22;38372;52.902;6.024;2023-06-04T06:25:57;14.10;99.90
52459;DHT22;38372;52.902;6.024;2023-06-04T06:28:23;14.30;99.90
52459;DHT22;38372;52.902;6.024;2023-06-04T06:30:48;14.50;99.90
52459;DHT22;38372;52.902;6.024;2023-06-04T06:33:14;14.70;99.90
52459;DHT22;38372;52.902;6.024;2023-06-04T06:35:40;14.90;99.90
52459;DHT22;38372;52.902;6.024;2023-06-04T06:38:06;15.00;99.90
52459;DHT22;38372;52.902;6.024;2023-06-04T06:40:32;15.20;99.90
52459;DHT22;38372;52.902;6.024;2023-06-04T06:42:57;15.30;99.90
52459;DHT22;38372;52.902;6.024;2023-06-04T06:45:23;15.50;99.90
52459;DHT22;38372;52.902;6.024;2023-06-04T06:47:49;15.70;99.90
52459;DHT22;38372;52.902;6.024;2023-06-04T06:50:15;15.90;99.90
52459;DHT22;38372;52.902;6.024;2023-06-04T06:52:41;16.10;99.90
52459;DHT22;38372;52.902;6.024;2023-06-04T06:55:07;16.30;99.90
52459;DHT22;38372;52.902;6.024;2023-06-04T06:57:33;16.40;99.90
52459;DHT22;38372;52.902;6.024;2023-06-04T06:59:59;16.60;99.90
52459;DHT22;38372;52.902;6.024;2023-06-04T07:02:25;16.80;99.90
52459;DHT22;38372;52.902;6.024;2023-06-04T07:04:51;16.80;99.90
52459;DHT22;38372;52.902;6.024;2023-06-04T07:07:16;17.00;99.90
52459;DHT22;38372;52.902;6.024;2023-06-04T07:09:42;17.10;99.90
52459;DHT22;38372;52.902;6.024;2023-06-04T07:12:08;17.30;99.90
52459;DHT22;38372;52.902;6.024;2023-06-04T07:14:34;17.50;99.90
52459;DHT22;38372;52.902;6.024;2023-06-04T07:17:00;17.70;99.90
52459;DHT22;38372;52.902;6.024;2023-06-04T07:19:26;17.90;99.90
52459;DHT22;38372;52.902;6.024;2023-06-04T07:21:54;18.10;99.90
52459;DHT22;38372;52.902;6.024;2023-06-04T07:24:20;18.20;99.90
52459;DHT22;38372;52.902;6.024;2023-06-04T07:26:45;18.40;99.90
52459;DHT22;38372;52.902;6.024;2023-06-04T07:29:11;18.60;99.90
52459;DHT22;38372;52.902;6.024;2023-06-04T07:31:37;18.60;99.90
52459;DHT22;38372;52.902;6.024;2023-06-04T07:34:03;18.70;99.90
52459;DHT22;38372;52.902;6.024;2023-06-04T07:36:29;18.60;99.90
52459;DHT22;38372;52.902;6.024;2023-06-04T07:38:56;18.60;99.90
52459;DHT22;38372;52.902;6.024;2023-06-04T07:41:22;18.80;99.90
52459;DHT22;38372;52.902;6.024;2023-06-04T07:43:48;19.00;99.90
52459;DHT22;38372;52.902;6.024;2023-06-04T07:46:14;19.20;99.90
52459;DHT22;38372;52.902;6.024;2023-06-04T07:48:44;19.30;99.90
52459;DHT22;38372;52.902;6.024;2023-06-04T07:51:12;19.40;99.90
52459;DHT22;38372;52.902;6.024;2023-06-04T07:53:37;19.50;99.90
52459;DHT22;38372;52.902;6.024;2023-06-04T07:56:04;19.60;99.90
52459;DHT22;38372;52.902;6.024;2023-06-04T07:58:29;19.70;99.90
52459;DHT22;38372;52.902;6.024;2023-06-04T08:00:56;19.80;99.90
52459;DHT22;38372;52.902;6.024;2023-06-04T08:03:23;20.00;99.90
52459;DHT22;38372;52.902;6.024;2023-06-04T08:05:50;20.30;99.90
52459;DHT22;38372;52.902;6.024;2023-06-04T08:08:16;20.50;99.90
52459;DHT22;38372;52.902;6.024;2023-06-04T08:10:42;20.70;99.90
52459;DHT22;38372;52.902;6.024;2023-06-04T08:13:08;20.80;99.90
52459;DHT22;38372;52.902;6.024;2023-06-04T08:15:35;20.80;99.90
52459;DHT22;38372;52.902;6.024;2023-06-04T08:18:01;20.80;99.90
52459;DHT22;38372;52.902;6.024;2023-06-04T08:20:27;21.00;99.90
52459;DHT22;38372;52.902;6.024;2023-06-04T08:22:53;21.20;99.90
52459;DHT22;38372;52.902;6.024;2023-06-04T08:25:18;21.40;99.90
52459;DHT22;38372;52.902;6.024;2023-06-04T08:27:44;21.60;99.90
52459;DHT22;38372;52.902;6.024;2023-06-04T08:30:10;21.70;99.90
52459;DHT22;38372;52.902;6.024;2023-06-04T08:32:36;21.80;99.90
52459;DHT22;38372;52.902;6.024;2023-06-04T08:35:02;22.00;99.90
52459;DHT22;38372;52.902;6.024;2023-06-04T08:37:28;22.10;99.90
52459;DHT22;38372;52.902;6.024;2023-06-04T08:39:54;21.90;99.90
52459;DHT22;38372;52.902;6.024;2023-06-04T08:42:43;21.80;99.90
52459;DHT22;38372;52.902;6.024;2023-06-04T08:45:12;21.70;99.90
52459;DHT22;38372;52.902;6.024;2023-06-04T08:47:44;21.70;99.90
52459;DHT22;38372;52.902;6.024;2023-06-04T08:50:17;21.90;99.90
52459;DHT22;38372;52.902;6.024;2023-06-04T08:52:44;22.20;99.90
52459;DHT22;38372;52.902;6.024;2023-06-04T08:55:11;22.60;99.90
52459;DHT22;38372;52.902;6.024;2023-06-04T08:57:39;22.90;99.70
52459;DHT22;38372;52.902;6.024;2023-06-04T09:00:07;23.00;99.90
52459;DHT22;38372;52.902;6.024;2023-06-04T09:02:36;23.00;99.90
52459;DHT22;38372;52.902;6.024;2023-06-04T09:05:06;23.20;99.90
52459;DHT22;38372;52.902;6.024;2023-06-04T09:07:39;23.40;99.80
52459;DHT22;38372;52.902;6.024;2023-06-04T09:10:07;23.50;99.30
52459;DHT22;38372;52.902;6.024;2023-06-04T09:12:36;23.40;98.40
52459;DHT22;38372;52.902;6.024;2023-06-04T09:15:03;23.50;98.20
52459;DHT22;38372;52.902;6.024;2023-06-04T09:17:29;23.60;98.80
52459;DHT22;38372;52.902;6.024;2023-06-04T09:19:55;23.70;98.10
52459;DHT22;38372;52.902;6.024;2023-06-04T09:22:35;23.80;98.20
52459;DHT22;38372;52.902;6.024;2023-06-04T09:25:03;23.70;97.50
52459;DHT22;38372;52.902;6.024;2023-06-04T09:27:38;23.50;96.70
52459;DHT22;38372;52.902;6.024;2023-06-04T09:30:05;23.50;96.40
52459;DHT22;38372;52.902;6.024;2023-06-04T09:32:34;23.70;96.50
52459;DHT22;38372;52.902;6.024;2023-06-04T09:35:15;24.00;96.70
52459;DHT22;38372;52.902;6.024;2023-06-04T09:37:43;24.10;94.00
52459;DHT22;38372;52.902;6.024;2023-06-04T09:40:22;24.00;95.30
52459;DHT22;38372;52.902;6.024;2023-06-04T09:42:50;24.20;95.00
52459;DHT22;38372;52.902;6.024;2023-06-04T09:45:35;24.30;93.90
52459;DHT22;38372;52.902;6.024;2023-06-04T09:48:01;24.40;92.90
52459;DHT22;38372;52.902;6.024;2023-06-04T09:50:31;24.40;92.60
52459;DHT22;38372;52.902;6.024;2023-06-04T09:52:59;24.30;91.00
52459;DHT22;38372;52.902;6.024;2023-06-04T09:55:25;24.30;92.00
52459;DHT22;38372;52.902;6.024;2023-06-04T09:57:52;24.50;92.00
52459;DHT22;38372;52.902;6.024;2023-06-04T10:00:20;24.60;92.60
52459;DHT22;38372;52.902;6.024;2023-06-04T10:02:47;24.80;92.10
52459;DHT22;38372;52.902;6.024;2023-06-04T10:05:15;24.80;92.10
52459;DHT22;38372;52.902;6.024;2023-06-04T10:07:45;24.90;92.00
52459;DHT22;38372;52.902;6.024;2023-06-04T10:10:15;25.00;91.80
52459;DHT22;38372;52.902;6.024;2023-06-04T10:12:42;25.10;90.90
52459;DHT22;38372;52.902;6.024;2023-06-04T10:15:12;25.20;91.40
52459;DHT22;38372;52.902;6.024;2023-06-04T10:17:39;25.40;90.80
52459;DHT22;38372;52.902;6.024;2023-06-04T10:20:07;25.60;90.90
52459;DHT22;38372;52.902;6.024;2023-06-04T10:22:35;25.70;89.90
52459;DHT22;38372;52.902;6.024;2023-06-04T10:25:01;25.90;90.20
52459;DHT22;38372;52.902;6.024;2023-06-04T10:27:30;25.80;88.40
52459;DHT22;38372;52.902;6.024;2023-06-04T10:29:57;25.70;88.10
52459;DHT22;38372;52.902;6.024;2023-06-04T10:32:29;25.70;88.30
52459;DHT22;38372;52.902;6.024;2023-06-04T10:34:55;25.60;86.90
52459;DHT22;38372;52.902;6.024;2023-06-04T10:37:26;25.50;87.00
52459;DHT22;38372;52.902;6.024;2023-06-04T10:39:53;25.40;79.60
52459;DHT22;38372;52.902;6.024;2023-06-04T10:42:22;25.20;86.10
52459;DHT22;38372;52.902;6.024;2023-06-04T10:44:57;25.40;87.00
52459;DHT22;38372;52.902;6.024;2023-06-04T10:47:27;25.50;85.30
52459;DHT22;38372;52.902;6.024;2023-06-04T10:50:10;25.60;85.00
52459;DHT22;38372;52.902;6.024;2023-06-04T10:52:37;25.70;84.10
52459;DHT22;38372;52.902;6.024;2023-06-04T10:55:06;25.90;85.50
52459;DHT22;38372;52.902;6.024;2023-06-04T10:57:33;26.00;84.40
52459;DHT22;38372;52.902;6.024;2023-06-04T11:00:00;25.90;82.20
52459;DHT22;38372;52.902;6.024;2023-06-04T11:02:31;25.80;81.80
52459;DHT22;38372;52.902;6.024;2023-06-04T11:05:04;25.80;81.40
52459;DHT22;38372;52.902;6.024;2023-06-04T11:07:46;26.00;81.00
52459;DHT22;38372;52.902;6.024;2023-06-04T11:10:16;26.00;80.70
52459;DHT22;38372;52.902;6.024;2023-06-04T11:12:46;25.80;77.40
52459;DHT22;38372;52.902;6.024;2023-06-04T11:15:16;25.80;80.30
52459;DHT22;38372;52.902;6.024;2023-06-04T11:17:54;25.80;76.20
52459;DHT22;38372;52.902;6.024;2023-06-04T11:20:22;25.90;79.10
52459;DHT22;38372;52.902;6.024;2023-06-04T11:25:17;25.90;79.00
52459;DHT22;38372;52.902;6.024;2023-06-04T11:27:44;25.90;77.20
52459;DHT22;38372;52.902;6.024;2023-06-04T11:30:10;25.80;78.50
52459;DHT22;38372;52.902;6.024;2023-06-04T11:32:37;25.70;78.80
52459;DHT22;38372;52.902;6.024;2023-06-04T11:35:04;25.80;78.60
52459;DHT22;38372;52.902;6.024;2023-06-04T11:37:33;25.80;78.50
52459;DHT22;38372;52.902;6.024;2023-06-04T11:40:00;25.80;77.60
52459;DHT22;38372;52.902;6.024;2023-06-04T11:42:31;25.70;76.40
52459;DHT22;38372;52.902;6.024;2023-06-04T11:44:58;25.60;77.30
52459;DHT22;38372;52.902;6.024;2023-06-04T11:47:24;25.60;77.70
52459;DHT22;38372;52.902;6.024;2023-06-04T11:49:57;25.70;78.70
52459;DHT22;38372;52.902;6.024;2023-06-04T11:52:23;25.70;77.50
52459;DHT22;38372;52.902;6.024;2023-06-04T11:54:49;25.60;77.30
52459;DHT22;38372;52.902;6.024;2023-06-04T11:57:15;25.60;76.30
52459;DHT22;38372;52.902;6.024;2023-06-04T11:59:41;25.70;76.60
52459;DHT22;38372;52.902;6.024;2023-06-04T12:02:07;25.70;77.10
52459;DHT22;38372;52.902;6.024;2023-06-04T12:04:33;25.60;73.50
52459;DHT22;38372;52.902;6.024;2023-06-04T12:07:01;25.60;75.60
52459;DHT22;38372;52.902;6.024;2023-06-04T12:09:31;25.50;75.10
52459;DHT22;38372;52.902;6.024;2023-06-04T12:12:07;25.50;75.60
52459;DHT22;38372;52.902;6.024;2023-06-04T12:14:34;25.70;75.00
52459;DHT22;38372;52.902;6.024;2023-06-04T12:17:02;25.70;75.60
52459;DHT22;38372;52.902;6.024;2023-06-04T12:19:28;25.70;75.30
52459;DHT22;38372;52.902;6.024;2023-06-04T12:22:05;25.80;74.40
52459;DHT22;38372;52.902;6.024;2023-06-04T12:24:32;25.60;73.00
52459;DHT22;38372;52.902;6.024;2023-06-04T12:27:05;25.60;73.40
52459;DHT22;38372;52.902;6.024;2023-06-04T12:29:32;25.40;71.50
52459;DHT22;38372;52.902;6.024;2023-06-04T12:32:09;25.20;72.20
52459;DHT22;38372;52.902;6.024;2023-06-04T12:34:37;25.00;73.20
52459;DHT22;38372;52.902;6.024;2023-06-04T12:37:03;24.90;73.80
52459;DHT22;38372;52.902;6.024;2023-06-04T12:39:32;24.80;74.10
52459;DHT22;38372;52.902;6.024;2023-06-04T12:41:58;24.80;73.70
52459;DHT22;38372;52.902;6.024;2023-06-04T12:44:25;24.70;73.10
52459;DHT22;38372;52.902;6.024;2023-06-04T12:46:51;24.50;72.70
52459;DHT22;38372;52.902;6.024;2023-06-04T12:49:16;24.40;71.40
52459;DHT22;38372;52.902;6.024;2023-06-04T12:51:42;24.30;72.00
52459;DHT22;38372;52.902;6.024;2023-06-04T12:54:09;24.20;72.20
52459;DHT22;38372;52.902;6.024;2023-06-04T12:56:36;24.10;72.20
52459;DHT22;38372;52.902;6.024;2023-06-04T12:59:02;24.00;72.50
52459;DHT22;38372;52.902;6.024;2023-06-04T13:01:28;24.00;71.30
52459;DHT22;38372;52.902;6.024;2023-06-04T13:03:53;23.90;72.40
52459;DHT22;38372;52.902;6.024;2023-06-04T13:06:21;23.90;73.40
52459;DHT22;38372;52.902;6.024;2023-06-04T13:08:46;23.90;74.40
52459;DHT22;38372;52.902;6.024;2023-06-04T13:11:13;24.00;74.10
52459;DHT22;38372;52.902;6.024;2023-06-04T13:13:41;24.00;73.50
52459;DHT22;38372;52.902;6.024;2023-06-04T13:16:07;23.90;74.80
52459;DHT22;38372;52.902;6.024;2023-06-04T13:18:34;23.90;75.40
52459;DHT22;38372;52.902;6.024;2023-06-04T13:21:00;24.00;75.00
52459;DHT22;38372;52.902;6.024;2023-06-04T13:23:25;23.90;73.80
52459;DHT22;38372;52.902;6.024;2023-06-04T13:25:51;23.70;73.20
52459;DHT22;38372;52.902;6.024;2023-06-04T13:28:17;23.70;74.60
52459;DHT22;38372;52.902;6.024;2023-06-04T13:30:43;23.80;75.40
52459;DHT22;38372;52.902;6.024;2023-06-04T13:33:09;23.90;75.40
52459;DHT22;38372;52.902;6.024;2023-06-04T13:35:35;24.00;75.90
52459;DHT22;38372;52.902;6.024;2023-06-04T13:38:05;24.20;76.10
52459;DHT22;38372;52.902;6.024;2023-06-04T13:40:35;24.30;76.00
52459;DHT22;38372;52.902;6.024;2023-06-04T13:43:01;24.30;75.60
52459;DHT22;38372;52.902;6.024;2023-06-04T13:45:27;24.30;76.10
52459;DHT22;38372;52.902;6.024;2023-06-04T13:47:53;24.30;76.00
52459;DHT22;38372;52.902;6.024;2023-06-04T13:50:19;24.30;76.00
52459;DHT22;38372;52.902;6.024;2023-06-04T13:52:45;24.30;76.00
52459;DHT22;38372;52.902;6.024;2023-06-04T13:55:12;24.30;75.60
52459;DHT22;38372;52.902;6.024;2023-06-04T13:57:38;24.10;75.20
52459;DHT22;38372;52.902;6.024;2023-06-04T14:00:05;24.00;75.80
52459;DHT22;38372;52.902;6.024;2023-06-04T14:02:32;24.20;76.20
52459;DHT22;38372;52.902;6.024;2023-06-04T14:04:58;24.50;75.70
52459;DHT22;38372;52.902;6.024;2023-06-04T14:07:24;24.80;75.20
52459;DHT22;38372;52.902;6.024;2023-06-04T14:09:50;24.90;75.10
52459;DHT22;38372;52.902;6.024;2023-06-04T14:12:21;24.70;74.70
52459;DHT22;38372;52.902;6.024;2023-06-04T14:14:47;24.50;75.80
52459;DHT22;38372;52.902;6.024;2023-06-04T14:17:12;24.40;76.10
52459;DHT22;38372;52.902;6.024;2023-06-04T14:19:41;24.10;76.50
52459;DHT22;38372;52.902;6.024;2023-06-04T14:22:07;24.00;77.00
52459;DHT22;38372;52.902;6.024;2023-06-04T14:24:33;23.70;77.50
52459;DHT22;38372;52.902;6.024;2023-06-04T14:26:59;23.40;77.30
52459;DHT22;38372;52.902;6.024;2023-06-04T14:29:25;23.30;78.00
52459;DHT22;38372;52.902;6.024;2023-06-04T14:31:51;23.30;77.30
52459;DHT22;38372;52.902;6.024;2023-06-04T14:34:17;23.30;77.00
52459;DHT22;38372;52.902;6.024;2023-06-04T14:36:42;23.10;77.80
52459;DHT22;38372;52.902;6.024;2023-06-04T14:39:08;22.80;78.60
52459;DHT22;38372;52.902;6.024;2023-06-04T14:41:34;22.60;78.90
52459;DHT22;38372;52.902;6.024;2023-06-04T14:44:00;22.40;79.10
52459;DHT22;38372;52.902;6.024;2023-06-04T14:46:26;22.20;79.70
52459;DHT22;38372;52.902;6.024;2023-06-04T14:48:52;22.00;79.60
52459;DHT22;38372;52.902;6.024;2023-06-04T14:51:19;21.90;80.40
52459;DHT22;38372;52.902;6.024;2023-06-04T14:53:46;21.80;80.90
52459;DHT22;38372;52.902;6.024;2023-06-04T14:56:14;21.60;80.50
52459;DHT22;38372;52.902;6.024;2023-06-04T14:58:39;21.50;80.80
52459;DHT22;38372;52.902;6.024;2023-06-04T15:01:05;21.40;81.50
52459;DHT22;38372;52.902;6.024;2023-06-04T15:03:32;21.40;82.10
52459;DHT22;38372;52.902;6.024;2023-06-04T15:05:58;21.40;82.10
52459;DHT22;38372;52.902;6.024;2023-06-04T15:08:24;21.40;82.10
52459;DHT22;38372;52.902;6.024;2023-06-04T15:10:50;21.20;82.20
52459;DHT22;38372;52.902;6.024;2023-06-04T15:13:16;21.10;82.40
52459;DHT22;38372;52.902;6.024;2023-06-04T15:15:41;21.00;82.60
52459;DHT22;38372;52.902;6.024;2023-06-04T15:18:07;20.90;83.00
52459;DHT22;38372;52.902;6.024;2023-06-04T15:20:33;20.80;83.80
52459;DHT22;38372;52.902;6.024;2023-06-04T15:22:59;20.70;83.50
52459;DHT22;38372;52.902;6.024;2023-06-04T15:25:25;20.60;84.20
52459;DHT22;38372;52.902;6.024;2023-06-04T15:27:51;20.50;84.30
52459;DHT22;38372;52.902;6.024;2023-06-04T15:30:16;20.40;84.20
52459;DHT22;38372;52.902;6.024;2023-06-04T15:32:43;20.30;84.60
52459;DHT22;38372;52.902;6.024;2023-06-04T15:35:10;20.20;85.00
52459;DHT22;38372;52.902;6.024;2023-06-04T15:37:36;20.10;85.00
52459;DHT22;38372;52.902;6.024;2023-06-04T15:40:02;20.00;84.70